sensor_id;sensor_type;location;lat;lon;timestamp;P1;durP1;ratioP1;P2;durP2;ratioP2
36191;SDS011;22233;42.708;23.360;2023-02-26T00:00:05;8.20;;;3.60;;
36191;SDS011;22233;42.708;23.360;2023-02-26T00:02:34;10.95;;;3.80;;
36191;SDS011;22233;42.708;23.360;2023-02-26T00:05:01;8.82;;;3.50;;
36191;SDS011;22233;42.708;23.360;2023-02-26T00:07:27;11.60;;;4.37;;
36191;SDS011;22233;42.708;23.360;2023-02-26T00:09:53;9.23;;;3.85;;
36191;SDS011;22233;42.708;23.360;2023-02-26T00:12:19;7.78;;;3.72;;
36191;SDS011;22233;42.708;23.360;2023-02-26T00:14:44;8.07;;;2.83;;
36191;SDS011;22233;42.708;23.360;2023-02-26T00:19:41;10.35;;;3.50;;
36191;SDS011;22233;42.708;23.360;2023-02-26T00:22:06;12.02;;;3.30;;
36191;SDS011;22233;42.708;23.360;2023-02-26T00:24:32;10.10;;;3.20;;
36191;SDS011;22233;42.708;23.360;2023-02-26T00:26:58;10.13;;;4.47;;
36191;SDS011;22233;42.708;23.360;2023-02-26T00:29:24;7.50;;;3.35;;
36191;SDS011;22233;42.708;23.360;2023-02-26T00:31:50;9.23;;;3.22;;
36191;SDS011;22233;42.708;23.360;2023-02-26T00:34:15;6.45;;;2.50;;
36191;SDS011;22233;42.708;23.360;2023-02-26T00:36:44;8.43;;;3.28;;
36191;SDS011;22233;42.708;23.360;2023-02-26T00:42:19;6.32;;;2.97;;
36191;SDS011;22233;42.708;23.360;2023-02-26T00:44:44;6.85;;;3.22;;
36191;SDS011;22233;42.708;23.360;2023-02-26T00:47:22;10.43;;;3.20;;
36191;SDS011;22233;42.708;23.360;2023-02-26T00:50:03;4.95;;;2.97;;
36191;SDS011;22233;42.708;23.360;2023-02-26T00:52:43;12.38;;;3.45;;
36191;SDS011;22233;42.708;23.360;2023-02-26T00:55:16;8.40;;;3.33;;
36191;SDS011;22233;42.708;23.360;2023-02-26T00:57:41;9.70;;;3.33;;
36191;SDS011;22233;42.708;23.360;2023-02-26T01:00:07;7.00;;;3.47;;
36191;SDS011;22233;42.708;23.360;2023-02-26T01:02:34;8.45;;;3.28;;
36191;SDS011;22233;42.708;23.360;2023-02-26T01:05:00;7.90;;;3.08;;
36191;SDS011;22233;42.708;23.360;2023-02-26T01:07:27;9.73;;;3.50;;
36191;SDS011;22233;42.708;23.360;2023-02-26T01:09:58;8.20;;;3.58;;
36191;SDS011;22233;42.708;23.360;2023-02-26T01:12:24;8.75;;;3.58;;
36191;SDS011;22233;42.708;23.360;2023-02-26T01:14:49;12.15;;;3.35;;
36191;SDS011;22233;42.708;23.360;2023-02-26T01:17:24;5.75;;;2.88;;
36191;SDS011;22233;42.708;23.360;2023-02-26T01:22:54;7.68;;;2.92;;
36191;SDS011;22233;42.708;23.360;2023-02-26T01:27:49;7.35;;;2.58;;
36191;SDS011;22233;42.708;23.360;2023-02-26T01:30:16;7.15;;;2.03;;
36191;SDS011;22233;42.708;23.360;2023-02-26T01:32:46;8.80;;;2.45;;
36191;SDS011;22233;42.708;23.360;2023-02-26T01:43:53;8.38;;;2.70;;
36191;SDS011;22233;42.708;23.360;2023-02-26T01:49:11;6.72;;;2.63;;
36191;SDS011;22233;42.708;23.360;2023-02-26T01:54:08;10.60;;;2.58;;
36191;SDS011;22233;42.708;23.360;2023-02-26T01:56:34;7.22;;;2.65;;
36191;SDS011;22233;42.708;23.360;2023-02-26T01:59:01;7.93;;;2.75;;
36191;SDS011;22233;42.708;23.360;2023-02-26T02:01:30;8.77;;;2.85;;
36191;SDS011;22233;42.708;23.360;2023-02-26T02:03:57;10.48;;;2.47;;
36191;SDS011;22233;42.708;23.360;2023-02-26T02:06:24;7.32;;;2.75;;
36191;SDS011;22233;42.708;23.360;2023-02-26T02:08:52;4.90;;;2.20;;
36191;SDS011;22233;42.708;23.360;2023-02-26T02:11:18;8.98;;;3.05;;
36191;SDS011;22233;42.708;23.360;2023-02-26T02:35:07;7.32;;;2.50;;
36191;SDS011;22233;42.708;23.360;2023-02-26T02:37:40;8.27;;;2.40;;
36191;SDS011;22233;42.708;23.360;2023-02-26T02:45:10;6.65;;;2.20;;
36191;SDS011;22233;42.708;23.360;2023-02-26T02:47:58;4.50;;;1.73;;
36191;SDS011;22233;42.708;23.360;2023-02-26T02:53:01;8.18;;;2.13;;
36191;SDS011;22233;42.708;23.360;2023-02-26T02:55:34;4.63;;;1.77;;
36191;SDS011;22233;42.708;23.360;2023-02-26T02:58:06;5.35;;;1.73;;
36191;SDS011;22233;42.708;23.360;2023-02-26T03:00:37;11.35;;;3.08;;
36191;SDS011;22233;42.708;23.360;2023-02-26T03:05:40;11.85;;;2.25;;
36191;SDS011;22233;42.708;23.360;2023-02-26T03:08:07;8.40;;;2.13;;
36191;SDS011;22233;42.708;23.360;2023-02-26T03:10:36;9.73;;;2.40;;
36191;SDS011;22233;42.708;23.360;2023-02-26T03:13:01;7.85;;;2.33;;
36191;SDS011;22233;42.708;23.360;2023-02-26T03:15:38;7.38;;;2.38;;
36191;SDS011;22233;42.708;23.360;2023-02-26T03:18:24;5.72;;;2.05;;
36191;SDS011;22233;42.708;23.360;2023-02-26T03:21:08;7.65;;;2.53;;
36191;SDS011;22233;42.708;23.360;2023-02-26T03:23:44;6.43;;;2.35;;
36191;SDS011;22233;42.708;23.360;2023-02-26T03:26:18;9.45;;;3.10;;
36191;SDS011;22233;42.708;23.360;2023-02-26T03:28:51;4.65;;;2.05;;
36191;SDS011;22233;42.708;23.360;2023-02-26T03:31:27;3.28;;;2.10;;
36191;SDS011;22233;42.708;23.360;2023-02-26T03:36:37;6.70;;;2.22;;
36191;SDS011;22233;42.708;23.360;2023-02-26T03:39:08;5.95;;;2.08;;
36191;SDS011;22233;42.708;23.360;2023-02-26T03:41:50;5.85;;;2.05;;
36191;SDS011;22233;42.708;23.360;2023-02-26T03:44:26;8.85;;;2.10;;
36191;SDS011;22233;42.708;23.360;2023-02-26T03:46:55;6.30;;;2.47;;
36191;SDS011;22233;42.708;23.360;2023-02-26T03:49:29;2.85;;;1.70;;
36191;SDS011;22233;42.708;23.360;2023-02-26T03:51:59;3.83;;;2.03;;
36191;SDS011;22233;42.708;23.360;2023-02-26T03:54:32;5.78;;;2.08;;
36191;SDS011;22233;42.708;23.360;2023-02-26T03:57:01;9.95;;;2.75;;
36191;SDS011;22233;42.708;23.360;2023-02-26T03:59:27;5.60;;;2.25;;
36191;SDS011;22233;42.708;23.360;2023-02-26T04:04:21;5.70;;;2.45;;
36191;SDS011;22233;42.708;23.360;2023-02-26T04:06:48;7.93;;;2.15;;
36191;SDS011;22233;42.708;23.360;2023-02-26T04:09:13;6.60;;;2.63;;
36191;SDS011;22233;42.708;23.360;2023-02-26T04:11:40;7.80;;;2.45;;
36191;SDS011;22233;42.708;23.360;2023-02-26T04:14:07;9.45;;;2.72;;
36191;SDS011;22233;42.708;23.360;2023-02-26T04:16:32;8.05;;;2.00;;
36191;SDS011;22233;42.708;23.360;2023-02-26T04:18:58;8.63;;;2.83;;
36191;SDS011;22233;42.708;23.360;2023-02-26T04:21:23;5.75;;;2.15;;
36191;SDS011;22233;42.708;23.360;2023-02-26T04:23:49;7.00;;;2.38;;
36191;SDS011;22233;42.708;23.360;2023-02-26T04:26:14;7.00;;;2.30;;
36191;SDS011;22233;42.708;23.360;2023-02-26T04:28:40;8.18;;;2.78;;
36191;SDS011;22233;42.708;23.360;2023-02-26T04:31:05;5.60;;;2.40;;
36191;SDS011;22233;42.708;23.360;2023-02-26T04:33:31;7.68;;;2.65;;
36191;SDS011;22233;42.708;23.360;2023-02-26T04:35:58;10.13;;;3.15;;
36191;SDS011;22233;42.708;23.360;2023-02-26T04:38:24;8.85;;;2.70;;
36191;SDS011;22233;42.708;23.360;2023-02-26T04:40:50;4.15;;;2.38;;
36191;SDS011;22233;42.708;23.360;2023-02-26T04:43:16;6.10;;;3.22;;
36191;SDS011;22233;42.708;23.360;2023-02-26T04:45:44;9.25;;;2.55;;
36191;SDS011;22233;42.708;23.360;2023-02-26T04:48:10;9.15;;;2.90;;
36191;SDS011;22233;42.708;23.360;2023-02-26T04:50:35;10.65;;;2.78;;
36191;SDS011;22233;42.708;23.360;2023-02-26T04:53:01;6.70;;;3.10;;
36191;SDS011;22233;42.708;23.360;2023-02-26T04:55:26;6.68;;;2.63;;
36191;SDS011;22233;42.708;23.360;2023-02-26T04:57:52;12.50;;;3.38;;
36191;SDS011;22233;42.708;23.360;2023-02-26T05:00:18;6.38;;;2.88;;
36191;SDS011;22233;42.708;23.360;2023-02-26T05:02:44;6.50;;;3.03;;
36191;SDS011;22233;42.708;23.360;2023-02-26T05:05:10;8.40;;;2.47;;
36191;SDS011;22233;42.708;23.360;2023-02-26T05:07:35;10.27;;;2.80;;
36191;SDS011;22233;42.708;23.360;2023-02-26T05:10:02;10.13;;;3.00;;
36191;SDS011;22233;42.708;23.360;2023-02-26T05:12:28;10.15;;;2.63;;
36191;SDS011;22233;42.708;23.360;2023-02-26T05:14:53;11.75;;;2.55;;
36191;SDS011;22233;42.708;23.360;2023-02-26T05:17:19;8.27;;;2.72;;
36191;SDS011;22233;42.708;23.360;2023-02-26T05:19:44;6.50;;;3.10;;
36191;SDS011;22233;42.708;23.360;2023-02-26T05:22:10;9.43;;;2.90;;
36191;SDS011;22233;42.708;23.360;2023-02-26T05:24:36;7.63;;;2.60;;
36191;SDS011;22233;42.708;23.360;2023-02-26T05:27:01;6.43;;;2.40;;
36191;SDS011;22233;42.708;23.360;2023-02-26T05:29:27;4.63;;;2.50;;
36191;SDS011;22233;42.708;23.360;2023-02-26T05:31:52;10.05;;;3.00;;
36191;SDS011;22233;42.708;23.360;2023-02-26T05:34:18;5.40;;;2.20;;
36191;SDS011;22233;42.708;23.360;2023-02-26T05:36:43;10.02;;;2.63;;
36191;SDS011;22233;42.708;23.360;2023-02-26T05:39:08;8.40;;;2.90;;
36191;SDS011;22233;42.708;23.360;2023-02-26T05:41:34;10.02;;;2.92;;
36191;SDS011;22233;42.708;23.360;2023-02-26T05:43:59;10.98;;;2.90;;
36191;SDS011;22233;42.708;23.360;2023-02-26T05:46:26;6.93;;;3.25;;
36191;SDS011;22233;42.708;23.360;2023-02-26T05:48:52;8.90;;;2.45;;
36191;SDS011;22233;42.708;23.360;2023-02-26T05:51:17;8.63;;;3.15;;
36191;SDS011;22233;42.708;23.360;2023-02-26T05:53:43;10.73;;;2.70;;
36191;SDS011;22233;42.708;23.360;2023-02-26T05:56:09;11.80;;;3.22;;
36191;SDS011;22233;42.708;23.360;2023-02-26T05:58:34;6.38;;;2.40;;
36191;SDS011;22233;42.708;23.360;2023-02-26T06:01:00;8.77;;;2.42;;
36191;SDS011;22233;42.708;23.360;2023-02-26T06:03:25;6.72;;;2.42;;
36191;SDS011;22233;42.708;23.360;2023-02-26T06:05:51;9.73;;;3.22;;
36191;SDS011;22233;42.708;23.360;2023-02-26T06:08:16;5.75;;;2.63;;
36191;SDS011;22233;42.708;23.360;2023-02-26T06:10:42;15.68;;;7.10;;
36191;SDS011;22233;42.708;23.360;2023-02-26T06:13:08;12.20;;;3.70;;
36191;SDS011;22233;42.708;23.360;2023-02-26T06:15:33;8.90;;;2.13;;
36191;SDS011;22233;42.708;23.360;2023-02-26T06:17:59;9.18;;;2.25;;
36191;SDS011;22233;42.708;23.360;2023-02-26T06:20:24;7.60;;;3.33;;
36191;SDS011;22233;42.708;23.360;2023-02-26T06:22:50;8.18;;;3.80;;
36191;SDS011;22233;42.708;23.360;2023-02-26T06:25:15;12.73;;;3.95;;
36191;SDS011;22233;42.708;23.360;2023-02-26T06:27:41;14.10;;;4.13;;
36191;SDS011;22233;42.708;23.360;2023-02-26T06:30:06;10.43;;;4.13;;
36191;SDS011;22233;42.708;23.360;2023-02-26T06:32:32;11.15;;;3.60;;
36191;SDS011;22233;42.708;23.360;2023-02-26T06:34:57;13.02;;;3.72;;
36191;SDS011;22233;42.708;23.360;2023-02-26T06:37:23;7.53;;;3.42;;
36191;SDS011;22233;42.708;23.360;2023-02-26T06:39:48;9.32;;;3.00;;
36191;SDS011;22233;42.708;23.360;2023-02-26T06:42:14;10.82;;;3.45;;
36191;SDS011;22233;42.708;23.360;2023-02-26T06:44:39;11.15;;;2.80;;
36191;SDS011;22233;42.708;23.360;2023-02-26T06:47:05;11.05;;;3.45;;
36191;SDS011;22233;42.708;23.360;2023-02-26T06:49:30;7.70;;;3.00;;
36191;SDS011;22233;42.708;23.360;2023-02-26T06:51:56;7.25;;;3.70;;
36191;SDS011;22233;42.708;23.360;2023-02-26T06:54:21;8.77;;;2.28;;
36191;SDS011;22233;42.708;23.360;2023-02-26T06:56:46;6.20;;;2.33;;
36191;SDS011;22233;42.708;23.360;2023-02-26T06:59:12;9.00;;;2.95;;
36191;SDS011;22233;42.708;23.360;2023-02-26T07:01:39;9.90;;;2.70;;
36191;SDS011;22233;42.708;23.360;2023-02-26T07:04:05;10.90;;;3.72;;
36191;SDS011;22233;42.708;23.360;2023-02-26T07:06:30;12.57;;;2.97;;
36191;SDS011;22233;42.708;23.360;2023-02-26T07:08:56;7.93;;;2.28;;
36191;SDS011;22233;42.708;23.360;2023-02-26T07:11:22;7.93;;;2.75;;
36191;SDS011;22233;42.708;23.360;2023-02-26T07:13:47;12.80;;;2.60;;
36191;SDS011;22233;42.708;23.360;2023-02-26T07:16:13;10.88;;;3.15;;
36191;SDS011;22233;42.708;23.360;2023-02-26T07:18:38;9.73;;;2.38;;
36191;SDS011;22233;42.708;23.360;2023-02-26T07:21:04;13.90;;;2.47;;
36191;SDS011;22233;42.708;23.360;2023-02-26T07:23:29;9.85;;;2.65;;
36191;SDS011;22233;42.708;23.360;2023-02-26T07:25:55;7.75;;;2.00;;
36191;SDS011;22233;42.708;23.360;2023-02-26T07:28:22;8.75;;;2.08;;
36191;SDS011;22233;42.708;23.360;2023-02-26T07:30:48;12.18;;;2.65;;
36191;SDS011;22233;42.708;23.360;2023-02-26T07:33:14;7.93;;;2.08;;
36191;SDS011;22233;42.708;23.360;2023-02-26T07:35:39;13.13;;;2.20;;
36191;SDS011;22233;42.708;23.360;2023-02-26T07:38:05;8.20;;;2.17;;
36191;SDS011;22233;42.708;23.360;2023-02-26T07:40:30;11.32;;;2.80;;
36191;SDS011;22233;42.708;23.360;2023-02-26T07:42:56;12.52;;;2.30;;
36191;SDS011;22233;42.708;23.360;2023-02-26T07:45:21;10.90;;;2.08;;
36191;SDS011;22233;42.708;23.360;2023-02-26T07:47:48;7.60;;;2.92;;
36191;SDS011;22233;42.708;23.360;2023-02-26T07:50:14;8.90;;;2.70;;
36191;SDS011;22233;42.708;23.360;2023-02-26T07:52:40;9.18;;;2.33;;
36191;SDS011;22233;42.708;23.360;2023-02-26T07:55:06;9.25;;;2.10;;
36191;SDS011;22233;42.708;23.360;2023-02-26T07:57:32;10.02;;;2.10;;
36191;SDS011;22233;42.708;23.360;2023-02-26T07:59:57;5.97;;;1.90;;
36191;SDS011;22233;42.708;23.360;2023-02-26T08:02:22;6.32;;;2.85;;
36191;SDS011;22233;42.708;23.360;2023-02-26T08:04:48;10.73;;;2.47;;
36191;SDS011;22233;42.708;23.360;2023-02-26T08:07:13;11.57;;;2.35;;
36191;SDS011;22233;42.708;23.360;2023-02-26T08:09:39;10.45;;;2.58;;
36191;SDS011;22233;42.708;23.360;2023-02-26T08:12:04;9.85;;;2.40;;
36191;SDS011;22233;42.708;23.360;2023-02-26T08:14:30;7.65;;;1.77;;
36191;SDS011;22233;42.708;23.360;2023-02-26T08:16:55;8.15;;;1.90;;
36191;SDS011;22233;42.708;23.360;2023-02-26T08:19:21;7.53;;;1.70;;
36191;SDS011;22233;42.708;23.360;2023-02-26T08:21:46;12.07;;;2.92;;
36191;SDS011;22233;42.708;23.360;2023-02-26T08:24:12;8.65;;;2.97;;
36191;SDS011;22233;42.708;23.360;2023-02-26T08:26:37;9.30;;;2.70;;
36191;SDS011;22233;42.708;23.360;2023-02-26T08:29:03;10.82;;;3.65;;
36191;SDS011;22233;42.708;23.360;2023-02-26T08:31:29;7.30;;;2.95;;
36191;SDS011;22233;42.708;23.360;2023-02-26T08:33:56;9.25;;;2.50;;
36191;SDS011;22233;42.708;23.360;2023-02-26T08:36:22;5.47;;;2.17;;
36191;SDS011;22233;42.708;23.360;2023-02-26T08:38:47;6.90;;;2.85;;
36191;SDS011;22233;42.708;23.360;2023-02-26T08:41:13;8.25;;;2.45;;
36191;SDS011;22233;42.708;23.360;2023-02-26T08:43:38;7.72;;;1.98;;
36191;SDS011;22233;42.708;23.360;2023-02-26T08:46:04;12.52;;;3.33;;
36191;SDS011;22233;42.708;23.360;2023-02-26T08:48:29;11.30;;;3.97;;
36191;SDS011;22233;42.708;23.360;2023-02-26T08:50:55;12.75;;;2.28;;
36191;SDS011;22233;42.708;23.360;2023-02-26T08:53:20;7.18;;;2.28;;
36191;SDS011;22233;42.708;23.360;2023-02-26T08:55:49;8.20;;;2.28;;
36191;SDS011;22233;42.708;23.360;2023-02-26T08:58:16;10.85;;;2.13;;
36191;SDS011;22233;42.708;23.360;2023-02-26T09:00:42;13.63;;;2.40;;
36191;SDS011;22233;42.708;23.360;2023-02-26T09:03:08;11.02;;;2.42;;
36191;SDS011;22233;42.708;23.360;2023-02-26T09:05:33;9.32;;;2.33;;
36191;SDS011;22233;42.708;23.360;2023-02-26T09:07:58;8.73;;;2.50;;
36191;SDS011;22233;42.708;23.360;2023-02-26T09:10:24;10.30;;;2.60;;
36191;SDS011;22233;42.708;23.360;2023-02-26T09:12:49;11.77;;;2.95;;
36191;SDS011;22233;42.708;23.360;2023-02-26T09:15:15;8.00;;;2.10;;
36191;SDS011;22233;42.708;23.360;2023-02-26T09:17:40;12.35;;;2.28;;
36191;SDS011;22233;42.708;23.360;2023-02-26T09:20:06;8.27;;;2.42;;
36191;SDS011;22233;42.708;23.360;2023-02-26T09:22:33;11.30;;;3.10;;
36191;SDS011;22233;42.708;23.360;2023-02-26T09:25:00;10.20;;;2.55;;
36191;SDS011;22233;42.708;23.360;2023-02-26T09:27:26;9.52;;;3.15;;
36191;SDS011;22233;42.708;23.360;2023-02-26T09:29:51;11.07;;;1.90;;
36191;SDS011;22233;42.708;23.360;2023-02-26T09:32:17;6.93;;;3.20;;
36191;SDS011;22233;42.708;23.360;2023-02-26T09:34:42;9.30;;;2.30;;
36191;SDS011;22233;42.708;23.360;2023-02-26T09:37:08;11.07;;;2.30;;
36191;SDS011;22233;42.708;23.360;2023-02-26T09:39:34;7.93;;;2.33;;
36191;SDS011;22233;42.708;23.360;2023-02-26T09:45:04;8.30;;;2.70;;
36191;SDS011;22233;42.708;23.360;2023-02-26T09:47:38;13.10;;;3.17;;
36191;SDS011;22233;42.708;23.360;2023-02-26T09:50:15;8.95;;;3.00;;
36191;SDS011;22233;42.708;23.360;2023-02-26T09:58:12;6.85;;;2.10;;
36191;SDS011;22233;42.708;23.360;2023-02-26T10:01:09;8.32;;;2.15;;
36191;SDS011;22233;42.708;23.360;2023-02-26T10:06:28;10.05;;;2.75;;
36191;SDS011;22233;42.708;23.360;2023-02-26T10:14:05;11.52;;;2.42;;
36191;SDS011;22233;42.708;23.360;2023-02-26T10:16:40;11.18;;;2.55;;
36191;SDS011;22233;42.708;23.360;2023-02-26T10:19:12;8.02;;;2.45;;
36191;SDS011;22233;42.708;23.360;2023-02-26T10:21:43;7.22;;;3.05;;
36191;SDS011;22233;42.708;23.360;2023-02-26T10:27:41;9.63;;;3.00;;
36191;SDS011;22233;42.708;23.360;2023-02-26T10:33:00;5.35;;;2.20;;
36191;SDS011;22233;42.708;23.360;2023-02-26T10:35:51;10.00;;;2.50;;
36191;SDS011;22233;42.708;23.360;2023-02-26T10:38:24;8.80;;;2.72;;
36191;SDS011;22233;42.708;23.360;2023-02-26T10:40:56;8.38;;;2.67;;
36191;SDS011;22233;42.708;23.360;2023-02-26T10:43:42;12.93;;;3.00;;
36191;SDS011;22233;42.708;23.360;2023-02-26T10:46:17;8.57;;;2.55;;
36191;SDS011;22233;42.708;23.360;2023-02-26T10:51:38;8.75;;;2.50;;
36191;SDS011;22233;42.708;23.360;2023-02-26T10:54:18;12.80;;;2.28;;
36191;SDS011;22233;42.708;23.360;2023-02-26T10:56:51;6.63;;;2.42;;
36191;SDS011;22233;42.708;23.360;2023-02-26T10:59:16;10.15;;;2.40;;
36191;SDS011;22233;42.708;23.360;2023-02-26T11:01:42;11.07;;;2.75;;
36191;SDS011;22233;42.708;23.360;2023-02-26T11:04:11;8.30;;;2.67;;
36191;SDS011;22233;42.708;23.360;2023-02-26T11:06:40;9.20;;;3.33;;
36191;SDS011;22233;42.708;23.360;2023-02-26T11:11:52;7.78;;;1.90;;
36191;SDS011;22233;42.708;23.360;2023-02-26T11:14:19;6.85;;;2.20;;
36191;SDS011;22233;42.708;23.360;2023-02-26T11:16:49;5.20;;;2.45;;
36191;SDS011;22233;42.708;23.360;2023-02-26T11:19:19;6.57;;;1.98;;
36191;SDS011;22233;42.708;23.360;2023-02-26T11:21:51;5.20;;;2.03;;
36191;SDS011;22233;42.708;23.360;2023-02-26T11:24:33;5.75;;;2.38;;
36191;SDS011;22233;42.708;23.360;2023-02-26T11:27:02;6.68;;;2.53;;
36191;SDS011;22233;42.708;23.360;2023-02-26T11:29:37;7.35;;;2.92;;
36191;SDS011;22233;42.708;23.360;2023-02-26T11:32:21;7.90;;;1.88;;
36191;SDS011;22233;42.708;23.360;2023-02-26T11:34:49;9.27;;;2.58;;
36191;SDS011;22233;42.708;23.360;2023-02-26T11:37:17;6.53;;;2.13;;
36191;SDS011;22233;42.708;23.360;2023-02-26T11:39:45;15.93;;;3.63;;
36191;SDS011;22233;42.708;23.360;2023-02-26T11:42:11;8.45;;;3.17;;
36191;SDS011;22233;42.708;23.360;2023-02-26T11:44:41;9.50;;;2.55;;
36191;SDS011;22233;42.708;23.360;2023-02-26T11:47:19;10.57;;;3.10;;
36191;SDS011;22233;42.708;23.360;2023-02-26T11:49:49;8.52;;;2.63;;
36191;SDS011;22233;42.708;23.360;2023-02-26T11:55:17;6.60;;;2.72;;
36191;SDS011;22233;42.708;23.360;2023-02-26T11:57:45;8.35;;;2.17;;
36191;SDS011;22233;42.708;23.360;2023-02-26T12:00:18;5.25;;;2.88;;
36191;SDS011;22233;42.708;23.360;2023-02-26T12:02:47;6.72;;;2.50;;
36191;SDS011;22233;42.708;23.360;2023-02-26T12:05:14;8.00;;;3.00;;
36191;SDS011;22233;42.708;23.360;2023-02-26T12:07:41;5.45;;;2.50;;
36191;SDS011;22233;42.708;23.360;2023-02-26T12:10:14;7.32;;;2.22;;
36191;SDS011;22233;42.708;23.360;2023-02-26T12:13:10;5.82;;;2.35;;
36191;SDS011;22233;42.708;23.360;2023-02-26T12:16:02;7.30;;;2.33;;
36191;SDS011;22233;42.708;23.360;2023-02-26T12:18:39;7.65;;;2.88;;
36191;SDS011;22233;42.708;23.360;2023-02-26T12:29:41;8.43;;;2.33;;
36191;SDS011;22233;42.708;23.360;2023-02-26T12:34:49;12.00;;;2.85;;
36191;SDS011;22233;42.708;23.360;2023-02-26T13:05:41;10.83;;;3.60;;
36191;SDS011;22233;42.708;23.360;2023-02-26T13:16:19;7.00;;;2.13;;
36191;SDS011;22233;42.708;23.360;2023-02-26T13:22:04;8.40;;;2.85;;
36191;SDS011;22233;42.708;23.360;2023-02-26T13:24:40;22.67;;;3.40;;
36191;SDS011;22233;42.708;23.360;2023-02-26T13:27:10;10.32;;;3.15;;
36191;SDS011;22233;42.708;23.360;2023-02-26T13:29:46;6.63;;;2.58;;
36191;SDS011;22233;42.708;23.360;2023-02-26T13:32:16;12.40;;;2.37;;
36191;SDS011;22233;42.708;23.360;2023-02-26T13:35:11;11.48;;;2.72;;
36191;SDS011;22233;42.708;23.360;2023-02-26T13:37:41;8.40;;;2.80;;
36191;SDS011;22233;42.708;23.360;2023-02-26T13:46:13;10.77;;;2.90;;
36191;SDS011;22233;42.708;23.360;2023-02-26T13:51:33;11.45;;;3.08;;
36191;SDS011;22233;42.708;23.360;2023-02-26T13:54:02;9.90;;;3.47;;
36191;SDS011;22233;42.708;23.360;2023-02-26T14:01:32;7.90;;;3.13;;
36191;SDS011;22233;42.708;23.360;2023-02-26T14:06:43;9.55;;;3.53;;
36191;SDS011;22233;42.708;23.360;2023-02-26T14:14:43;12.63;;;3.90;;
36191;SDS011;22233;42.708;23.360;2023-02-26T14:17:48;12.20;;;3.28;;
36191;SDS011;22233;42.708;23.360;2023-02-26T14:22:46;11.70;;;2.75;;
36191;SDS011;22233;42.708;23.360;2023-02-26T14:29:05;9.18;;;3.30;;
36191;SDS011;22233;42.708;23.360;2023-02-26T14:36:16;12.77;;;3.45;;
36191;SDS011;22233;42.708;23.360;2023-02-26T14:38:45;10.55;;;3.20;;
36191;SDS011;22233;42.708;23.360;2023-02-26T14:41:29;11.25;;;3.95;;
36191;SDS011;22233;42.708;23.360;2023-02-26T14:43:59;15.75;;;4.65;;
36191;SDS011;22233;42.708;23.360;2023-02-26T14:46:27;10.52;;;4.05;;
36191;SDS011;22233;42.708;23.360;2023-02-26T14:48:53;16.00;;;4.18;;
36191;SDS011;22233;42.708;23.360;2023-02-26T14:54:16;14.75;;;4.20;;
36191;SDS011;22233;42.708;23.360;2023-02-26T14:56:53;13.77;;;4.40;;
36191;SDS011;22233;42.708;23.360;2023-02-26T15:22:37;13.45;;;3.40;;
36191;SDS011;22233;42.708;23.360;2023-02-26T15:25:12;18.45;;;4.05;;
36191;SDS011;22233;42.708;23.360;2023-02-26T15:27:49;12.63;;;2.97;;
36191;SDS011;22233;42.708;23.360;2023-02-26T15:30:15;16.23;;;4.35;;
36191;SDS011;22233;42.708;23.360;2023-02-26T15:32:41;18.05;;;4.68;;
36191;SDS011;22233;42.708;23.360;2023-02-26T15:35:13;19.90;;;4.80;;
36191;SDS011;22233;42.708;23.360;2023-02-26T15:37:48;12.75;;;3.67;;
36191;SDS011;22233;42.708;23.360;2023-02-26T15:40:17;11.18;;;3.63;;
36191;SDS011;22233;42.708;23.360;2023-02-26T15:42:43;17.23;;;3.25;;
36191;SDS011;22233;42.708;23.360;2023-02-26T15:45:32;14.10;;;3.70;;
36191;SDS011;22233;42.708;23.360;2023-02-26T15:48:02;10.88;;;3.80;;
36191;SDS011;22233;42.708;23.360;2023-02-26T15:50:32;12.32;;;3.90;;
36191;SDS011;22233;42.708;23.360;2023-02-26T15:53:02;13.02;;;3.97;;
36191;SDS011;22233;42.708;23.360;2023-02-26T15:55:30;12.18;;;3.38;;
36191;SDS011;22233;42.708;23.360;2023-02-26T15:58:00;10.07;;;4.30;;
36191;SDS011;22233;42.708;23.360;2023-02-26T16:00:27;11.73;;;3.42;;
36191;SDS011;22233;42.708;23.360;2023-02-26T16:02:57;8.45;;;4.03;;
36191;SDS011;22233;42.708;23.360;2023-02-26T16:05:24;11.02;;;3.33;;
36191;SDS011;22233;42.708;23.360;2023-02-26T16:07:50;20.13;;;4.63;;
36191;SDS011;22233;42.708;23.360;2023-02-26T16:10:17;12.27;;;4.45;;
36191;SDS011;22233;42.708;23.360;2023-02-26T16:12:56;12.75;;;3.58;;
36191;SDS011;22233;42.708;23.360;2023-02-26T16:17:53;8.20;;;3.92;;
36191;SDS011;22233;42.708;23.360;2023-02-26T16:20:21;14.00;;;3.70;;
36191;SDS011;22233;42.708;23.360;2023-02-26T16:22:53;13.95;;;4.63;;
36191;SDS011;22233;42.708;23.360;2023-02-26T16:25:23;16.15;;;5.50;;
36191;SDS011;22233;42.708;23.360;2023-02-26T16:28:01;14.95;;;4.32;;
36191;SDS011;22233;42.708;23.360;2023-02-26T16:30:38;15.27;;;4.07;;
36191;SDS011;22233;42.708;23.360;2023-02-26T16:33:11;11.23;;;5.07;;
36191;SDS011;22233;42.708;23.360;2023-02-26T16:35:43;13.18;;;5.07;;
36191;SDS011;22233;42.708;23.360;2023-02-26T16:38:16;18.50;;;4.95;;
36191;SDS011;22233;42.708;23.360;2023-02-26T16:40:42;14.88;;;4.35;;
36191;SDS011;22233;42.708;23.360;2023-02-26T16:46:00;14.45;;;5.15;;
36191;SDS011;22233;42.708;23.360;2023-02-26T16:48:29;14.90;;;5.15;;
36191;SDS011;22233;42.708;23.360;2023-02-26T16:51:09;12.95;;;3.63;;
36191;SDS011;22233;42.708;23.360;2023-02-26T16:56:14;17.60;;;4.40;;
36191;SDS011;22233;42.708;23.360;2023-02-26T16:58:46;15.85;;;4.95;;
36191;SDS011;22233;42.708;23.360;2023-02-26T17:01:15;13.00;;;4.55;;
36191;SDS011;22233;42.708;23.360;2023-02-26T17:03:46;24.88;;;5.57;;
36191;SDS011;22233;42.708;23.360;2023-02-26T17:06:14;23.58;;;7.40;;
36191;SDS011;22233;42.708;23.360;2023-02-26T17:11:15;24.35;;;6.35;;
36191;SDS011;22233;42.708;23.360;2023-02-26T17:13:44;18.38;;;6.03;;
36191;SDS011;22233;42.708;23.360;2023-02-26T17:16:11;21.13;;;7.38;;
36191;SDS011;22233;42.708;23.360;2023-02-26T17:18:37;17.50;;;6.40;;
36191;SDS011;22233;42.708;23.360;2023-02-26T17:21:03;17.45;;;7.28;;
36191;SDS011;22233;42.708;23.360;2023-02-26T17:23:30;15.63;;;6.90;;
36191;SDS011;22233;42.708;23.360;2023-02-26T17:26:00;19.70;;;5.13;;
36191;SDS011;22233;42.708;23.360;2023-02-26T17:28:29;18.98;;;5.88;;
36191;SDS011;22233;42.708;23.360;2023-02-26T17:30:58;16.45;;;5.32;;
36191;SDS011;22233;42.708;23.360;2023-02-26T17:33:23;12.00;;;5.03;;
36191;SDS011;22233;42.708;23.360;2023-02-26T17:35:49;13.95;;;5.88;;
36191;SDS011;22233;42.708;23.360;2023-02-26T17:38:16;14.07;;;5.57;;
36191;SDS011;22233;42.708;23.360;2023-02-26T17:40:42;18.33;;;5.38;;
36191;SDS011;22233;42.708;23.360;2023-02-26T17:43:09;14.73;;;5.65;;
36191;SDS011;22233;42.708;23.360;2023-02-26T17:45:35;14.25;;;5.70;;
36191;SDS011;22233;42.708;23.360;2023-02-26T17:48:03;13.48;;;6.03;;
36191;SDS011;22233;42.708;23.360;2023-02-26T17:50:45;11.07;;;4.03;;
36191;SDS011;22233;42.708;23.360;2023-02-26T17:53:13;12.77;;;3.95;;
36191;SDS011;22233;42.708;23.360;2023-02-26T17:55:40;10.98;;;4.60;;
36191;SDS011;22233;42.708;23.360;2023-02-26T17:58:06;11.95;;;4.25;;
36191;SDS011;22233;42.708;23.360;2023-02-26T18:00:53;15.38;;;4.75;;
36191;SDS011;22233;42.708;23.360;2023-02-26T18:03:19;18.48;;;4.75;;
36191;SDS011;22233;42.708;23.360;2023-02-26T18:05:45;12.32;;;4.50;;
36191;SDS011;22233;42.708;23.360;2023-02-26T18:08:20;14.75;;;4.40;;
36191;SDS011;22233;42.708;23.360;2023-02-26T18:10:47;10.88;;;4.30;;